Time;durP1;ratioP1;P1;durP2;ratioP2;P2;SDS_P1;SDS_P2;PMS_P1;PMS_P2;Temp;Humidity;BMP_temperature;BMP_pressure;BME280_temperature;BME280_humidity;BME280_pressure;Samples;Min_cycle;Max_cycle;Signal;HPM_P1;HPM_P2
2023/02/04 00:00:22;;;;;;;27.25;4.38;;;5.00;99.90;;;;;;5041259;28;25065;-81
2023/02/04 00:02:50;;;;;;;30.83;4.18;;;5.00;99.90;;;;;;5057666;28;25097;-81
2023/02/04 00:05:18;;;;;;;19.30;3.38;;;5.00;99.90;;;;;;5042008;28;25107;-81
2023/02/04 00:07:46;;;;;;;29.92;3.30;;;5.00;99.90;;;;;;5058849;28;25060;-81
2023/02/04 00:10:13;;;;;;;21.17;3.10;;;4.90;99.90;;;;;;5040948;28;25053;-80
2023/02/04 00:12:40;;;;;;;26.90;3.17;;;4.90;99.90;;;;;;5059034;28;25092;-80
2023/02/04 00:15:09;;;;;;;28.63;4.32;;;5.00;99.90;;;;;;5059171;28;25100;-81
2023/02/04 00:17:38;;;;;;;12.30;2.40;;;5.00;99.90;;;;;;5041001;28;25061;-81
2023/02/04 00:20:07;;;;;;;19.05;3.80;;;5.00;99.90;;;;;;5040910;28;25125;-80
2023/02/04 00:22:34;;;;;;;19.02;2.92;;;5.00;99.90;;;;;;5058554;28;25085;-80
2023/02/04 00:25:01;;;;;;;24.25;6.03;;;5.00;99.90;;;;;;5040979;28;25105;-80
2023/02/04 00:27:28;;;;;;;35.08;5.97;;;5.00;99.90;;;;;;5040658;28;25090;-80
2023/02/04 00:29:56;;;;;;;29.40;3.53;;;5.00;99.90;;;;;;5067453;28;25076;-80
2023/02/04 00:32:24;;;;;;;24.50;4.05;;;5.00;99.90;;;;;;5078709;28;25054;-80
2023/02/04 00:34:52;;;;;;;26.23;4.05;;;5.10;99.90;;;;;;5077753;28;25139;-80
2023/02/04 00:37:19;;;;;;;21.10;3.22;;;5.10;99.90;;;;;;5078634;28;25148;-80
2023/02/04 00:39:47;;;;;;;21.70;3.80;;;5.20;99.90;;;;;;5077223;28;25112;-80
2023/02/04 00:42:15;;;;;;;21.17;2.80;;;5.30;99.90;;;;;;5078195;28;25112;-80
2023/02/04 00:44:43;;;;;;;23.42;3.63;;;5.30;99.90;;;;;;5078140;28;25146;-80
2023/02/04 00:47:10;;;;;;;26.92;3.58;;;5.40;99.90;;;;;;5077036;28;25098;-80
2023/02/04 00:49:37;;;;;;;33.17;3.67;;;5.40;99.90;;;;;;5078324;28;25100;-80
2023/02/04 00:52:04;;;;;;;26.63;3.67;;;5.40;99.90;;;;;;5078354;28;25069;-81
2023/02/04 00:54:32;;;;;;;28.48;3.97;;;5.40;99.90;;;;;;5077407;28;25071;-80
2023/02/04 00:56:59;;;;;;;24.55;3.63;;;5.50;99.90;;;;;;5077033;28;25057;-80
2023/02/04 00:59:27;;;;;;;36.70;4.20;;;5.40;99.90;;;;;;5076996;28;25073;-80
2023/02/04 01:01:54;;;;;;;23.65;3.17;;;5.50;99.90;;;;;;5076197;28;25065;-80
2023/02/04 01:04:22;;;;;;;26.70;4.20;;;5.50;99.90;;;;;;5076601;28;25070;-80
2023/02/04 01:06:49;;;;;;;28.60;4.32;;;5.50;99.90;;;;;;5077675;28;25104;-80
2023/02/04 01:09:16;;;;;;;27.60;4.82;;;5.50;99.90;;;;;;5076734;28;25060;-80
2023/02/04 01:11:44;;;;;;;25.60;3.35;;;5.50;99.90;;;;;;5077723;28;25052;-80
2023/02/04 01:14:11;;;;;;;20.88;3.30;;;5.50;99.90;;;;;;5077899;28;25141;-80
2023/02/04 01:16:39;;;;;;;31.17;4.10;;;5.50;99.90;;;;;;5077558;28;25084;-80
2023/02/04 01:19:06;;;;;;;23.48;4.57;;;5.40;99.90;;;;;;5076422;28;25104;-80
2023/02/04 01:21:33;;;;;;;23.38;4.50;;;5.50;99.90;;;;;;5077591;28;25076;-80
2023/02/04 01:24:00;;;;;;;32.10;3.45;;;5.40;99.90;;;;;;5077431;28;25112;-80
2023/02/04 01:26:27;;;;;;;32.03;3.38;;;5.40;99.90;;;;;;5077340;28;25068;-80
2023/02/04 01:28:55;;;;;;;21.02;2.60;;;5.30;99.90;;;;;;5070690;28;25130;-81
2023/02/04 01:31:22;;;;;;;37.03;4.18;;;5.30;99.90;;;;;;5039360;28;25064;-80
2023/02/04 01:33:50;;;;;;;24.83;3.13;;;5.20;99.90;;;;;;5039509;28;25058;-81
2023/02/04 01:36:20;;;;;;;20.67;3.95;;;5.20;99.90;;;;;;5057470;28;25102;-80
2023/02/04 01:38:48;;;;;;;15.20;3.50;;;5.10;99.90;;;;;;5056820;28;25053;-80
2023/02/04 01:41:17;;;;;;;22.90;3.35;;;5.10;99.90;;;;;;5039540;28;25065;-80
2023/02/04 01:43:46;;;;;;;21.83;3.03;;;5.00;99.90;;;;;;5057012;28;25103;-80
2023/02/04 01:46:14;;;;;;;20.23;3.65;;;5.00;99.90;;;;;;5057036;28;25074;-81
2023/02/04 01:48:41;;;;;;;22.05;4.22;;;4.90;99.90;;;;;;5039186;28;25115;-80
2023/02/04 01:51:14;;;;;;;20.42;3.40;;;4.90;99.90;;;;;;5039377;28;25072;-80
2023/02/04 01:53:43;;;;;;;20.73;3.90;;;4.80;99.90;;;;;;5057119;28;25064;-80
2023/02/04 01:56:21;;;;;;;13.05;2.85;;;4.80;99.90;;;;;;5056767;28;25058;-80
2023/02/04 01:58:49;;;;;;;18.45;3.20;;;4.80;99.90;;;;;;5057338;28;25129;-80
2023/02/04 02:01:40;;;;;;;16.45;2.45;;;4.80;99.90;;;;;;5056919;28;25140;-80
2023/02/04 02:04:17;;;;;;;16.67;2.55;;;4.70;99.90;;;;;;5056604;28;25106;-80
2023/02/04 02:06:56;;;;;;;20.45;2.63;;;4.70;99.90;;;;;;5038384;28;25096;-80
2023/02/04 02:09:25;;;;;;;24.25;3.20;;;4.70;99.90;;;;;;5039586;28;25099;-80
2023/02/04 02:11:53;;;;;;;17.65;3.35;;;4.70;99.90;;;;;;5038810;28;25072;-80
2023/02/04 02:14:21;;;;;;;17.50;2.30;;;4.60;99.90;;;;;;5056589;28;25084;-80
2023/02/04 02:16:48;;;;;;;22.23;3.50;;;4.60;99.90;;;;;;5038273;28;25084;-81
2023/02/04 02:19:33;;;;;;;14.80;2.55;;;4.50;99.90;;;;;;5038985;28;25117;-80
2023/02/04 02:22:13;;;;;;;14.48;3.72;;;4.50;99.90;;;;;;5038761;28;25123;-80
2023/02/04 02:24:40;;;;;;;20.90;3.90;;;4.50;99.90;;;;;;5038701;28;25106;-80
2023/02/04 02:27:10;;;;;;;19.17;3.15;;;4.50;99.90;;;;;;5038850;28;25058;-80
2023/02/04 02:29:39;;;;;;;21.02;3.35;;;4.50;99.90;;;;;;5059751;28;25069;-80
2023/02/04 02:32:09;;;;;;;20.60;2.40;;;4.50;99.90;;;;;;5075284;28;25060;-80
2023/02/04 02:34:38;;;;;;;26.25;2.63;;;4.40;99.90;;;;;;5075301;28;25062;-80
2023/02/04 02:37:07;;;;;;;19.40;2.55;;;4.40;99.90;;;;;;5074857;28;25108;-80
2023/02/04 02:39:37;;;;;;;22.77;3.28;;;4.40;99.90;;;;;;5075635;28;25123;-80
2023/02/04 02:42:05;;;;;;;25.90;2.22;;;4.40;99.90;;;;;;5075083;28;25087;-80
2023/02/04 02:44:33;;;;;;;15.20;2.78;;;4.30;99.90;;;;;;5076552;28;25124;-80
2023/02/04 02:47:00;;;;;;;17.67;2.03;;;4.30;99.90;;;;;;5076758;28;25165;-80
2023/02/04 02:49:31;;;;;;;28.60;2.70;;;4.30;99.90;;;;;;5074566;28;25109;-80
2023/02/04 02:51:58;;;;;;;20.67;2.97;;;4.30;99.90;;;;;;5075620;28;25153;-80
2023/02/04 02:54:31;;;;;;;13.68;2.00;;;4.30;99.90;;;;;;5075939;28;25110;-80
2023/02/04 02:56:58;;;;;;;19.52;2.47;;;4.30;99.90;;;;;;5076334;28;25046;-80
2023/02/04 02:59:26;;;;;;;16.55;2.90;;;4.30;99.90;;;;;;5075179;28;25078;-80
2023/02/04 03:01:59;;;;;;;8.95;1.90;;;4.30;99.90;;;;;;5074952;28;25058;-80
2023/02/04 03:04:30;;;;;;;20.70;3.30;;;4.30;99.90;;;;;;5075016;28;25128;-80
2023/02/04 03:06:57;;;;;;;13.07;1.98;;;4.40;99.90;;;;;;5074932;28;25106;-80
2023/02/04 03:09:26;;;;;;;13.38;2.20;;;4.40;99.90;;;;;;5075006;28;25091;-80
2023/02/04 03:11:54;;;;;;;15.40;2.45;;;4.50;99.90;;;;;;5074869;28;25112;-80
2023/02/04 03:14:24;;;;;;;12.43;3.47;;;4.50;99.90;;;;;;5076244;28;25078;-80
2023/02/04 03:16:53;;;;;;;14.30;2.67;;;4.50;99.90;;;;;;5074832;28;25148;-80
2023/02/04 03:19:21;;;;;;;11.73;2.65;;;4.50;99.90;;;;;;5076077;28;25063;-80
2023/02/04 03:21:48;;;;;;;9.73;2.10;;;4.50;99.90;;;;;;5075885;28;25113;-80
2023/02/04 03:24:16;;;;;;;12.60;1.30;;;4.50;99.90;;;;;;5075936;28;25091;-80
2023/02/04 03:26:44;;;;;;;16.65;2.38;;;4.50;99.90;;;;;;5075778;28;25058;-80
2023/02/04 03:29:14;;;;;;;10.82;1.40;;;4.50;99.90;;;;;;5070294;28;25053;-80
2023/02/04 03:31:41;;;;;;;9.95;2.08;;;4.50;99.90;;;;;;5059564;28;25047;-80
2023/02/04 03:34:08;;;;;;;26.10;2.20;;;4.50;99.90;;;;;;5041800;28;25102;-80
2023/02/04 03:36:36;;;;;;;9.43;1.48;;;4.50;99.90;;;;;;5058940;28;25077;-80
2023/02/04 03:39:04;;;;;;;6.03;1.45;;;4.50;99.90;;;;;;5042636;28;25132;-80
2023/02/04 03:41:31;;;;;;;14.32;2.03;;;4.50;99.90;;;;;;5041566;28;25113;-80
2023/02/04 03:43:58;;;;;;;13.35;1.33;;;4.50;99.90;;;;;;5059494;28;25061;-80
2023/02/04 03:46:27;;;;;;;9.48;1.40;;;4.40;99.90;;;;;;5059579;28;25115;-80
2023/02/04 03:48:54;;;;;;;15.20;2.28;;;4.40;99.90;;;;;;5041452;28;25074;-80
2023/02/04 03:51:21;;;;;;;14.75;1.67;;;4.40;99.90;;;;;;5041452;28;25049;-80
2023/02/04 03:53:49;;;;;;;8.25;1.73;;;4.40;99.90;;;;;;5059315;28;25069;-80
2023/02/04 03:56:16;;;;;;;10.45;1.48;;;4.40;99.90;;;;;;5041347;28;25080;-80
2023/02/04 03:58:43;;;;;;;11.48;1.17;;;4.40;99.90;;;;;;5041358;28;25127;-80
2023/02/04 04:01:11;;;;;;;11.85;1.48;;;4.40;99.90;;;;;;5059275;28;25124;-80
2023/02/04 04:03:39;;;;;;;7.18;1.02;;;4.40;99.90;;;;;;5059241;28;25069;-80
2023/02/04 04:06:08;;;;;;;9.18;1.60;;;4.40;99.90;;;;;;5059338;28;25108;-80
2023/02/04 04:08:37;;;;;;;9.70;2.05;;;4.30;99.90;;;;;;5059088;28;25132;-80
2023/02/04 04:11:04;;;;;;;6.13;1.00;;;4.30;99.90;;;;;;5041093;28;25121;-80
2023/02/04 04:13:32;;;;;;;8.02;2.00;;;4.30;99.90;;;;;;5059023;28;25080;-80
2023/02/04 04:15:59;;;;;;;8.50;1.33;;;4.20;99.90;;;;;;5041177;28;25103;-80
2023/02/04 04:18:26;;;;;;;9.10;1.50;;;4.20;99.90;;;;;;5041531;28;25115;-80
2023/02/04 04:20:53;;;;;;;6.72;2.40;;;4.20;99.90;;;;;;5040944;28;25096;-80
2023/02/04 04:23:20;;;;;;;6.20;1.30;;;4.20;99.90;;;;;;5040807;28;25117;-80
2023/02/04 04:25:48;;;;;;;8.95;1.50;;;4.20;99.90;;;;;;5058886;28;25165;-80
2023/02/04 04:28:15;;;;;;;8.73;1.52;;;4.20;99.90;;;;;;5058376;28;25116;-80
2023/02/04 04:30:42;;;;;;;6.88;2.08;;;4.20;99.90;;;;;;5040659;28;25127;-80
2023/02/04 04:33:09;;;;;;;7.68;1.58;;;4.20;99.90;;;;;;5040653;28;25116;-79
2023/02/04 04:35:36;;;;;;;4.88;1.67;;;4.20;99.90;;;;;;5058784;28;25059;-80
2023/02/04 04:38:04;;;;;;;5.70;1.40;;;4.20;99.90;;;;;;5040172;28;25054;-80
2023/02/04 04:40:31;;;;;;;4.57;1.25;;;4.20;99.90;;;;;;5040510;28;25097;-80
2023/02/04 04:42:59;;;;;;;2.17;1.27;;;4.10;99.90;;;;;;5040452;28;25066;-80
2023/02/04 04:45:26;;;;;;;5.97;1.40;;;4.20;99.90;;;;;;5040656;28;25108;-80
2023/02/04 04:47:53;;;;;;;3.72;1.20;;;4.10;99.90;;;;;;5058131;28;25075;-80
2023/02/04 04:50:21;;;;;;;8.98;2.15;;;4.10;99.90;;;;;;5040342;28;25053;-80
2023/02/04 04:52:48;;;;;;;9.70;1.60;;;4.10;99.90;;;;;;5040364;28;25100;-80
2023/02/04 04:55:16;;;;;;;4.90;1.08;;;4.10;99.90;;;;;;5058117;28;25155;-80
2023/02/04 04:57:43;;;;;;;10.25;1.63;;;4.10;99.90;;;;;;5040262;28;25053;-80
2023/02/04 05:00:16;;;;;;;2.85;0.98;;;4.10;99.90;;;;;;5057229;28;25132;-80
2023/02/04 05:02:44;;;;;;;4.45;1.10;;;4.00;99.90;;;;;;5057892;28;25107;-80
2023/02/04 05:05:12;;;;;;;7.07;1.70;;;4.00;99.90;;;;;;5040309;28;25146;-80
2023/02/04 05:07:39;;;;;;;3.90;1.55;;;3.90;99.90;;;;;;5057690;28;25089;-80
2023/02/04 05:10:07;;;;;;;7.63;1.02;;;3.90;99.90;;;;;;5057573;28;25266;-80
2023/02/04 05:12:34;;;;;;;3.63;1.27;;;3.90;99.90;;;;;;5057926;28;25172;-80
2023/02/04 05:15:02;;;;;;;7.03;1.10;;;3.90;99.90;;;;;;5058012;28;25060;-80
2023/02/04 05:17:29;;;;;;;2.00;1.00;;;3.90;99.90;;;;;;5056284;28;25123;-80
2023/02/04 05:19:56;;;;;;;6.63;1.73;;;3.90;99.90;;;;;;5039876;28;25065;-80
2023/02/04 05:22:23;;;;;;;5.32;1.60;;;3.90;99.90;;;;;;5040854;28;25057;-80
2023/02/04 05:24:51;;;;;;;9.25;1.00;;;3.90;99.90;;;;;;5039753;28;25075;-80
2023/02/04 05:27:18;;;;;;;5.50;1.42;;;3.90;99.90;;;;;;5039587;28;25090;-80
2023/02/04 05:29:45;;;;;;;6.63;1.75;;;3.90;99.90;;;;;;5057147;28;25107;-80
2023/02/04 05:32:12;;;;;;;7.85;1.40;;;3.90;99.90;;;;;;5039584;28;25069;-80
2023/02/04 05:34:39;;;;;;;4.70;1.05;;;3.90;99.90;;;;;;5057514;28;25052;-80
2023/02/04 05:37:07;;;;;;;3.17;1.30;;;3.90;99.90;;;;;;5039240;28;25112;-80
2023/02/04 05:39:34;;;;;;;3.28;1.20;;;3.90;99.90;;;;;;5055897;28;25063;-80
2023/02/04 05:42:01;;;;;;;6.80;1.55;;;3.80;99.90;;;;;;5039300;28;25054;-80
2023/02/04 05:44:29;;;;;;;5.97;1.40;;;3.80;99.90;;;;;;5039062;28;25076;-80
2023/02/04 05:46:56;;;;;;;4.68;1.40;;;3.80;99.90;;;;;;5057026;28;25081;-80
2023/02/04 05:49:23;;;;;;;4.05;1.00;;;3.80;99.90;;;;;;5039304;28;25076;-80
2023/02/04 05:51:50;;;;;;;6.20;1.20;;;3.80;99.90;;;;;;5038584;28;25109;-80
2023/02/04 05:54:19;;;;;;;7.97;1.33;;;3.80;99.90;;;;;;5056374;28;25096;-80
2023/02/04 05:56:47;;;;;;;6.30;1.55;;;3.70;99.90;;;;;;5056787;28;25077;-80
2023/02/04 05:59:14;;;;;;;7.05;1.40;;;3.70;99.90;;;;;;5039322;28;25102;-80
2023/02/04 06:01:41;;;;;;;6.10;1.20;;;3.70;99.90;;;;;;5039121;28;25048;-80
2023/02/04 06:04:08;;;;;;;6.18;1.42;;;3.70;99.90;;;;;;5056710;28;25131;-80
2023/02/04 06:06:35;;;;;;;8.98;1.40;;;3.70;99.90;;;;;;5056669;28;25143;-80
2023/02/04 06:09:03;;;;;;;3.00;1.45;;;3.70;99.90;;;;;;5056970;28;25115;-80
2023/02/04 06:11:31;;;;;;;5.00;1.40;;;3.70;99.90;;;;;;5038837;28;25086;-80
2023/02/04 06:13:58;;;;;;;4.07;1.20;;;3.70;99.90;;;;;;5056824;28;25049;-80
2023/02/04 06:16:25;;;;;;;10.50;1.23;;;3.70;99.90;;;;;;5038784;28;25092;-80
2023/02/04 06:18:52;;;;;;;10.35;1.40;;;3.60;99.90;;;;;;5056926;28;25052;-80
2023/02/04 06:21:20;;;;;;;5.55;1.20;;;3.60;99.90;;;;;;5056704;28;25127;-80
2023/02/04 06:23:47;;;;;;;4.90;1.48;;;3.60;99.90;;;;;;5056413;28;25067;-80
2023/02/04 06:26:14;;;;;;;4.68;1.50;;;3.60;99.90;;;;;;5054891;28;25122;-80
2023/02/04 06:28:42;;;;;;;4.35;1.45;;;3.60;99.90;;;;;;5043462;28;25120;-80
2023/02/04 06:31:09;;;;;;;4.75;1.25;;;3.50;99.90;;;;;;5075632;28;25116;-80
2023/02/04 06:33:38;;;;;;;3.72;1.33;;;3.50;99.90;;;;;;5076900;28;25067;-80
2023/02/04 06:36:05;;;;;;;2.40;1.40;;;3.50;99.90;;;;;;5076353;28;25057;-80
2023/02/04 06:38:33;;;;;;;4.13;1.20;;;3.50;99.90;;;;;;5075177;28;25144;-80
2023/02/04 06:41:00;;;;;;;2.80;1.25;;;3.40;99.90;;;;;;5075119;28;25048;-77
2023/02/04 06:43:27;;;;;;;2.38;1.23;;;3.40;99.90;;;;;;5075190;28;25145;-78
2023/02/04 06:45:54;;;;;;;5.50;1.42;;;3.40;99.90;;;;;;5075178;28;25072;-78
2023/02/04 06:48:22;;;;;;;4.63;1.55;;;3.30;99.90;;;;;;5076530;28;25112;-78
2023/02/04 06:50:49;;;;;;;2.63;1.23;;;3.20;99.90;;;;;;5076185;28;25118;-78
2023/02/04 06:53:16;;;;;;;2.78;1.20;;;3.20;99.90;;;;;;5076414;28;25079;-78
2023/02/04 06:55:43;;;;;;;5.72;1.73;;;3.20;99.90;;;;;;5075137;28;25060;-78
2023/02/04 06:58:11;;;;;;;5.80;1.95;;;3.10;99.90;;;;;;5076123;28;25048;-78
2023/02/04 07:00:38;;;;;;;8.93;1.95;;;3.10;99.90;;;;;;5075222;28;24761;-78
2023/02/04 07:03:06;;;;;;;7.32;1.83;;;3.10;99.90;;;;;;5078314;28;25101;-78
2023/02/04 07:05:33;;;;;;;7.35;1.67;;;3.00;99.90;;;;;;5080565;28;25103;-81
2023/02/04 07:08:01;;;;;;;3.53;1.52;;;3.00;99.90;;;;;;5079192;28;25057;-78
2023/02/04 07:10:28;;;;;;;4.80;1.63;;;2.90;99.90;;;;;;5077968;28;25097;-78
2023/02/04 07:12:55;;;;;;;4.35;2.25;;;2.80;99.90;;;;;;5080033;28;25070;-78
2023/02/04 07:15:23;;;;;;;5.03;2.00;;;2.80;99.90;;;;;;5080203;28;25073;-84
2023/02/04 07:17:51;;;;;;;4.25;1.85;;;2.80;99.90;;;;;;5080136;28;25116;-79
2023/02/04 07:20:19;;;;;;;5.32;1.88;;;2.70;99.90;;;;;;5077055;28;25061;-76
2023/02/04 07:22:46;;;;;;;3.58;1.48;;;2.70;99.90;;;;;;5078740;28;25128;-77
2023/02/04 07:25:14;;;;;;;4.00;2.20;;;2.60;99.90;;;;;;5078778;28;25109;-75
2023/02/04 07:27:42;;;;;;;5.40;1.67;;;2.60;99.90;;;;;;5080241;28;25068;-76
2023/02/04 07:30:10;;;;;;;3.35;1.50;;;2.50;99.90;;;;;;5078188;28;25128;-75
2023/02/04 07:32:37;;;;;;;4.97;1.73;;;2.50;99.90;;;;;;5079853;28;25090;-78
2023/02/04 07:35:05;;;;;;;3.92;1.67;;;2.50;99.90;;;;;;5076876;28;25148;-75
2023/02/04 07:37:32;;;;;;;3.80;1.58;;;2.40;99.90;;;;;;5078429;28;25102;-75
2023/02/04 07:40:00;;;;;;;5.00;1.35;;;2.30;99.90;;;;;;5079744;28;25052;-74
2023/02/04 07:42:27;;;;;;;7.65;1.80;;;2.30;99.90;;;;;;5079330;28;25094;-75
2023/02/04 07:44:55;;;;;;;3.35;1.83;;;2.20;99.90;;;;;;5079527;28;25067;-75
2023/02/04 07:47:22;;;;;;;5.82;1.70;;;2.10;99.90;;;;;;5078155;28;25149;-74
2023/02/04 07:49:50;;;;;;;4.88;1.65;;;2.10;99.90;;;;;;5079162;28;25112;-73
2023/02/04 07:52:17;;;;;;;2.95;1.88;;;2.00;99.90;;;;;;5079179;28;25065;-74
2023/02/04 07:54:44;;;;;;;6.85;1.67;;;2.00;99.90;;;;;;5079448;28;25111;-74
2023/02/04 07:57:11;;;;;;;4.63;2.38;;;1.90;99.90;;;;;;5079275;28;25061;-74
2023/02/04 07:59:38;;;;;;;4.63;2.20;;;1.80;99.90;;;;;;5079027;28;25142;-75
2023/02/04 08:02:08;;;;;;;7.38;2.17;;;1.80;99.90;;;;;;5079275;28;25064;-77
2023/02/04 08:04:37;;;;;;;3.30;1.90;;;1.80;99.90;;;;;;5078961;28;25089;-70
2023/02/04 08:07:04;;;;;;;5.95;1.58;;;1.80;99.90;;;;;;5079665;28;25062;-70
2023/02/04 08:09:31;;;;;;;7.70;2.20;;;1.80;99.90;;;;;;5078967;28;25073;-71
2023/02/04 08:11:58;;;;;;;8.45;2.40;;;1.80;99.90;;;;;;5079372;28;25117;-70
2023/02/04 08:14:26;;;;;;;3.40;1.77;;;1.70;99.90;;;;;;5078580;28;25075;-70
2023/02/04 08:16:54;;;;;;;3.97;2.03;;;1.70;99.90;;;;;;5078791;28;25060;-71
2023/02/04 08:19:22;;;;;;;28.88;9.85;;;1.80;99.90;;;;;;5077788;28;25064;-72
2023/02/04 08:21:50;;;;;;;15.95;5.82;;;1.70;99.90;;;;;;5078670;28;25079;-72
2023/02/04 08:24:17;;;;;;;9.88;2.42;;;1.70;99.90;;;;;;5078646;28;25058;-72
2023/02/04 08:26:44;;;;;;;6.25;1.63;;;1.70;99.90;;;;;;5077451;28;25067;-72
2023/02/04 08:29:11;;;;;;;5.28;1.30;;;1.80;99.90;;;;;;5070264;28;25111;-72
2023/02/04 08:31:39;;;;;;;2.88;1.60;;;1.80;99.90;;;;;;5058990;28;25061;-70
2023/02/04 08:34:07;;;;;;;4.30;1.15;;;1.80;99.90;;;;;;5058728;28;25144;-72
2023/02/04 08:36:34;;;;;;;2.80;1.25;;;1.90;99.90;;;;;;5058376;28;25068;-72
2023/02/04 08:39:01;;;;;;;2.67;1.60;;;1.90;99.90;;;;;;5058516;28;25126;-70
2023/02/04 08:41:29;;;;;;;3.38;0.98;;;1.90;99.90;;;;;;5058804;28;25130;-72
2023/02/04 08:43:57;;;;;;;3.72;1.25;;;2.00;99.90;;;;;;5058576;28;25121;-71
2023/02/04 08:46:24;;;;;;;3.85;1.23;;;2.10;99.90;;;;;;5058718;28;25073;-72
2023/02/04 08:48:51;;;;;;;2.72;1.30;;;2.10;99.90;;;;;;5058128;28;25055;-71
2023/02/04 08:51:19;;;;;;;3.05;1.33;;;2.20;99.90;;;;;;5040326;28;25069;-71
2023/02/04 08:53:47;;;;;;;8.95;1.35;;;2.30;99.90;;;;;;5058070;28;25111;-71
2023/02/04 08:56:19;;;;;;;4.55;1.25;;;2.30;99.90;;;;;;5057885;28;25086;-71
2023/02/04 08:58:53;;;;;;;3.42;1.20;;;2.50;99.90;;;;;;5058524;28;25050;-71
2023/02/04 09:01:21;;;;;;;6.90;1.10;;;2.50;99.90;;;;;;5057811;28;25085;-71
2023/02/04 09:04:01;;;;;;;4.25;1.27;;;2.60;99.90;;;;;;5040752;28;25067;-71
2023/02/04 09:06:28;;;;;;;5.25;1.40;;;2.70;99.90;;;;;;5058301;28;25054;-71
2023/02/04 09:08:56;;;;;;;3.67;1.75;;;2.80;99.90;;;;;;5057680;28;25131;-71
2023/02/04 09:11:23;;;;;;;3.33;1.30;;;3.00;99.90;;;;;;5057616;28;25061;-70
2023/02/04 09:13:51;;;;;;;3.05;1.20;;;3.10;99.90;;;;;;5057856;28;25053;-71
2023/02/04 09:16:18;;;;;;;3.28;1.70;;;3.20;99.90;;;;;;5057893;28;25095;-71
2023/02/04 09:18:45;;;;;;;2.80;1.10;;;3.30;99.90;;;;;;5057588;28;25083;-72
2023/02/04 09:21:12;;;;;;;4.30;2.03;;;3.50;99.90;;;;;;5057488;28;25125;-72
2023/02/04 09:23:40;;;;;;;2.20;1.20;;;3.70;99.90;;;;;;5057542;28;25136;-72
2023/02/04 09:26:08;;;;;;;4.55;1.75;;;3.80;99.90;;;;;;5057421;28;25067;-72
2023/02/04 09:28:36;;;;;;;3.15;0.90;;;3.90;99.90;;;;;;5057335;28;25114;-72
2023/02/04 09:31:05;;;;;;;5.85;2.60;;;4.10;99.90;;;;;;5057593;28;25122;-72
2023/02/04 09:33:33;;;;;;;6.28;2.13;;;4.20;99.90;;;;;;5057155;28;25084;-72
2023/02/04 09:36:01;;;;;;;5.38;2.60;;;4.30;99.90;;;;;;5039646;28;25082;-72
2023/02/04 09:38:29;;;;;;;7.07;2.78;;;4.40;99.90;;;;;;5057684;28;25057;-71
2023/02/04 09:41:08;;;;;;;11.40;3.00;;;4.60;99.90;;;;;;5057061;28;25053;-72
2023/02/04 09:43:40;;;;;;;8.52;2.55;;;4.70;99.90;;;;;;5057145;28;25061;-71
2023/02/04 09:46:20;;;;;;;7.07;2.25;;;4.80;99.90;;;;;;5039331;28;25145;-72
2023/02/04 09:48:48;;;;;;;3.45;1.80;;;5.00;99.90;;;;;;5057074;28;25106;-72
2023/02/04 09:51:23;;;;;;;4.47;1.02;;;5.10;99.90;;;;;;5039251;28;25065;-72
2023/02/04 09:53:52;;;;;;;2.40;0.90;;;5.10;99.90;;;;;;5057194;28;25065;-73
2023/02/04 09:56:20;;;;;;;2.50;1.70;;;5.10;99.90;;;;;;5056787;28;25153;-72
2023/02/04 09:58:49;;;;;;;2.30;0.80;;;5.10;99.90;;;;;;5039279;28;25050;-71
2023/02/04 10:01:20;;;;;;;4.45;0.93;;;5.20;99.90;;;;;;5056678;28;25064;-74
2023/02/04 10:03:50;;;;;;;5.57;0.88;;;5.20;99.90;;;;;;5039521;28;25077;-71
2023/02/04 10:06:20;;;;;;;2.63;0.82;;;5.10;99.90;;;;;;5056940;28;25122;-72
2023/02/04 10:08:49;;;;;;;5.82;1.25;;;5.10;99.90;;;;;;5057245;28;25110;-70
2023/02/04 10:11:19;;;;;;;3.83;0.80;;;5.20;99.90;;;;;;5056501;28;25060;-70
2023/02/04 10:13:52;;;;;;;4.32;0.80;;;5.10;99.90;;;;;;5038870;28;25072;-70
2023/02/04 10:16:21;;;;;;;1.88;0.80;;;5.10;99.90;;;;;;5038759;28;25059;-70
2023/02/04 10:18:48;;;;;;;2.13;0.70;;;5.10;99.90;;;;;;5057181;28;25056;-70
2023/02/04 10:21:26;;;;;;;1.83;0.82;;;5.10;99.90;;;;;;5056483;28;25055;-71
2023/02/04 10:23:56;;;;;;;3.40;0.95;;;5.00;99.90;;;;;;5056752;28;25068;-71
2023/02/04 10:26:30;;;;;;;1.45;0.60;;;5.00;99.90;;;;;;5056370;28;25131;-70
2023/02/04 10:29:19;;;;;;;1.38;0.70;;;5.00;99.90;;;;;;5056212;28;25128;-70
2023/02/04 10:31:50;;;;;;;2.85;1.67;;;4.90;99.90;;;;;;5056363;28;25073;-71
2023/02/04 10:34:23;;;;;;;1.92;0.98;;;4.90;99.90;;;;;;5056248;28;25052;-71
2023/02/04 10:36:56;;;;;;;2.83;1.00;;;4.80;99.90;;;;;;5038158;28;25070;-71
2023/02/04 10:39:26;;;;;;;4.75;1.20;;;4.70;99.90;;;;;;5056923;28;25131;-71
2023/02/04 10:41:59;;;;;;;1.40;0.82;;;4.70;99.90;;;;;;5054987;28;25062;-72
2023/02/04 10:44:32;;;;;;;2.15;1.08;;;4.70;99.90;;;;;;5039425;28;25067;-71
2023/02/04 10:47:16;;;;;;;2.00;0.70;;;4.70;99.90;;;;;;5056119;28;25072;-72
2023/02/04 10:50:13;;;;;;;4.65;0.93;;;4.70;99.90;;;;;;5056929;28;25073;-73
2023/02/04 10:52:42;;;;;;;2.05;0.98;;;4.80;99.90;;;;;;5038460;28;25105;-72
2023/02/04 10:55:28;;;;;;;1.90;0.90;;;4.90;99.90;;;;;;5056932;28;25118;-71
2023/02/04 10:58:00;;;;;;;0.77;0.47;;;4.90;99.90;;;;;;5056599;28;25076;-72
2023/02/04 11:00:29;;;;;;;1.85;0.85;;;4.90;99.90;;;;;;5055877;28;25101;-72
2023/02/04 11:03:07;;;;;;;2.25;0.60;;;4.90;99.90;;;;;;5039110;28;25069;-72
2023/02/04 11:05:35;;;;;;;2.17;1.02;;;4.90;99.90;;;;;;5056727;28;25116;-73
2023/02/04 11:08:18;;;;;;;2.67;0.90;;;4.90;99.90;;;;;;5038278;28;25055;-70
2023/02/04 11:10:50;;;;;;;4.65;0.65;;;5.00;99.90;;;;;;5056269;28;25064;-72
2023/02/04 11:13:23;;;;;;;2.42;0.88;;;5.00;99.90;;;;;;5055947;28;25098;-71
2023/02/04 11:16:14;;;;;;;3.63;1.40;;;5.00;99.90;;;;;;5056189;28;25095;-71
2023/02/04 11:18:50;;;;;;;1.92;0.98;;;5.00;99.90;;;;;;5038207;28;25070;-72
2023/02/04 11:21:29;;;;;;;2.85;1.17;;;4.90;99.90;;;;;;5055864;28;25096;-72
2023/02/04 11:24:15;;;;;;;2.67;0.88;;;4.90;99.90;;;;;;5055998;28;25110;-72
2023/02/04 11:26:47;;;;;;;2.47;1.23;;;5.00;99.90;;;;;;5038064;28;25060;-72
2023/02/04 11:29:35;;;;;;;2.03;1.20;;;5.00;99.90;;;;;;5051094;28;25092;-71
2023/02/04 11:32:26;;;;;;;1.58;0.85;;;5.00;99.90;;;;;;5076338;28;25073;-71
2023/02/04 11:34:56;;;;;;;1.77;1.08;;;5.10;99.90;;;;;;5075873;28;25070;-72
2023/02/04 11:37:45;;;;;;;2.10;1.17;;;5.20;99.90;;;;;;5076508;28;25073;-70
2023/02/04 11:40:24;;;;;;;4.38;1.33;;;5.20;99.90;;;;;;5075600;28;25096;-72
2023/02/04 11:43:01;;;;;;;2.05;1.00;;;5.30;99.90;;;;;;5075933;28;25134;-72
2023/02/04 11:45:34;;;;;;;4.60;1.10;;;5.30;99.90;;;;;;5075705;28;25075;-72
2023/02/04 11:48:04;;;;;;;2.78;1.17;;;5.30;99.90;;;;;;5057957;28;25090;-72
2023/02/04 11:50:37;;;;;;;6.85;2.45;;;5.30;99.90;;;;;;5079249;28;25058;-72
2023/02/04 11:53:05;;;;;;;4.32;2.25;;;5.30;99.90;;;;;;5079225;28;25121;-72
2023/02/04 11:55:43;;;;;;;4.65;2.50;;;5.30;99.90;;;;;;5079450;28;25121;-72
2023/02/04 11:58:19;;;;;;;3.03;1.23;;;5.30;99.90;;;;;;5078050;28;25079;-72
2023/02/04 12:00:47;;;;;;;3.35;1.10;;;5.30;99.90;;;;;;5079082;28;25072;-72
2023/02/04 12:03:35;;;;;;;2.63;1.23;;;5.40;99.90;;;;;;5079366;28;25063;-72
2023/02/04 12:06:03;;;;;;;3.38;1.50;;;5.40;99.90;;;;;;5079010;28;25077;-72
2023/02/04 12:08:35;;;;;;;4.85;1.63;;;5.30;99.90;;;;;;5079725;28;25058;-72
2023/02/04 12:11:26;;;;;;;2.55;1.30;;;5.30;99.90;;;;;;5078800;28;25065;-72
2023/02/04 12:13:55;;;;;;;1.75;0.80;;;5.30;99.90;;;;;;5078932;28;25089;-72
2023/02/04 12:16:23;;;;;;;5.22;1.20;;;5.30;99.90;;;;;;5078855;28;25106;-72
2023/02/04 12:18:51;;;;;;;3.35;1.13;;;5.30;99.90;;;;;;5077934;28;25062;-72
2023/02/04 12:21:18;;;;;;;3.15;1.20;;;5.30;99.90;;;;;;5078796;28;25043;-72
2023/02/04 12:23:46;;;;;;;3.80;1.30;;;5.30;99.90;;;;;;5077695;28;25070;-72
2023/02/04 12:26:13;;;;;;;4.57;1.30;;;5.40;99.90;;;;;;5078362;28;25056;-72
2023/02/04 12:28:40;;;;;;;4.95;1.60;;;5.40;99.90;;;;;;5075613;28;25067;-72
2023/02/04 12:31:08;;;;;;;2.90;1.10;;;5.40;99.90;;;;;;5058352;28;25082;-72
2023/02/04 12:33:35;;;;;;;2.28;1.00;;;5.40;99.90;;;;;;5041070;28;25058;-72
2023/02/04 12:36:03;;;;;;;4.28;1.20;;;5.40;99.90;;;;;;5040770;28;25095;-72
2023/02/04 12:38:30;;;;;;;2.90;1.33;;;5.50;99.90;;;;;;5040930;28;25076;-72
2023/02/04 12:40:58;;;;;;;1.88;1.00;;;5.50;99.90;;;;;;5040554;28;25102;-72
2023/02/04 12:43:26;;;;;;;3.53;0.93;;;5.60;99.90;;;;;;5058598;28;25137;-72
2023/02/04 12:45:53;;;;;;;4.30;1.23;;;5.70;99.90;;;;;;5058272;28;25062;-72
2023/02/04 12:48:21;;;;;;;3.65;1.20;;;5.80;99.90;;;;;;5057055;28;25079;-72
2023/02/04 12:50:48;;;;;;;73.88;23.13;;;5.90;99.90;;;;;;5040321;28;25085;-72
2023/02/04 12:53:15;;;;;;;23.15;8.88;;;6.00;99.90;;;;;;5039929;28;25128;-72
2023/02/04 12:55:43;;;;;;;17.13;5.85;;;6.10;99.90;;;;;;5040053;28;25065;-72
2023/02/04 12:58:10;;;;;;;3.05;1.38;;;6.10;99.90;;;;;;5040002;28;25060;-72
2023/02/04 13:00:38;;;;;;;6.70;1.58;;;6.30;99.90;;;;;;5057917;28;25064;-72
2023/02/04 13:03:05;;;;;;;3.38;1.83;;;6.40;99.90;;;;;;5040196;28;25120;-72